Time;durP1;ratioP1;P1;durP2;ratioP2;P2;SDS_P1;SDS_P2;PMS_P1;PMS_P2;Temp;Humidity;BMP_temperature;BMP_pressure;BME280_temperature;BME280_humidity;BME280_pressure;Samples;Min_cycle;Max_cycle;Signal;HPM_P1;HPM_P2
2022/02/02 00:01:18;;;;;;;8.60;1.40;;;2.00;96.30;;;;;;5052032;28;20422;-72
2022/02/02 00:03:49;;;;;;;3.67;1.30;;;2.10;96.30;;;;;;5052059;28;20488;-72
2022/02/02 00:06:20;;;;;;;9.50;1.83;;;2.00;96.30;;;;;;5033868;28;20448;-72
2022/02/02 00:09:01;;;;;;;4.53;1.20;;;2.00;96.30;;;;;;5051842;28;20485;-71
2022/02/02 00:12:00;;;;;;;7.13;1.80;;;2.00;96.30;;;;;;5033934;28;20430;-72
2022/02/02 00:14:38;;;;;;;8.83;1.50;;;2.00;96.30;;;;;;5051590;28;20438;-72
2022/02/02 00:17:15;;;;;;;7.77;1.67;;;2.00;96.30;;;;;;5054906;28;20413;-72
2022/02/02 00:20:00;;;;;;;8.03;2.20;;;2.00;96.30;;;;;;5038171;28;20437;-72
2022/02/02 00:22:33;;;;;;;7.30;1.60;;;2.00;96.30;;;;;;5055957;28;20445;-71
2022/02/02 00:25:07;;;;;;;10.93;1.60;;;2.00;96.30;;;;;;5055498;28;20424;-71
2022/02/02 00:27:34;;;;;;;7.20;1.40;;;2.00;96.30;;;;;;5037720;28;20457;-70
2022/02/02 00:30:02;;;;;;;8.67;2.10;;;1.90;96.30;;;;;;5055781;28;20413;-71
2022/02/02 00:34:59;;;;;;;4.20;1.47;;;1.80;96.30;;;;;;5055415;28;20960;-70
2022/02/02 00:37:25;;;;;;;13.03;1.80;;;1.90;96.30;;;;;;5055607;28;20414;-71
2022/02/02 00:39:50;;;;;;;8.70;2.00;;;2.00;96.30;;;;;;5055513;28;20211;-71
2022/02/02 00:42:16;;;;;;;6.70;1.47;;;2.00;96.30;;;;;;5055396;28;20203;-70
2022/02/02 00:44:46;;;;;;;4.93;1.30;;;2.00;96.30;;;;;;5055443;28;20172;-70
2022/02/02 00:47:19;;;;;;;15.80;1.93;;;2.00;96.30;;;;;;5055405;28;20210;-70
2022/02/02 00:49:46;;;;;;;10.53;1.77;;;1.90;96.30;;;;;;5055450;28;20788;-70
2022/02/02 00:52:12;;;;;;;8.13;1.63;;;2.00;96.30;;;;;;5055355;28;20456;-70
2022/02/02 00:54:37;;;;;;;11.33;1.70;;;2.10;96.30;;;;;;5055007;28;20437;-71
2022/02/02 00:57:03;;;;;;;10.67;1.77;;;2.00;96.30;;;;;;5055195;28;20301;-70
2022/02/02 00:59:28;;;;;;;14.03;2.27;;;2.00;96.30;;;;;;5055179;28;20812;-70
2022/02/02 05:08:19;;;;;;;0.90;0.70;;;0.60;96.30;;;;;;5015452;28;20785;-71
2022/02/02 05:19:00;;;;;;;9.07;1.30;;;0.70;96.30;;;;;;5016071;28;20446;-69
2022/02/02 05:59:59;;;;;;;6.10;1.07;;;0.90;96.30;;;;;;5007070;28;20484;-71
2022/02/02 06:02:32;;;;;;;6.53;0.90;;;0.90;96.30;;;;;;5012591;28;20416;-72
2022/02/02 06:05:04;;;;;;;6.20;1.60;;;0.90;96.30;;;;;;5013584;28;20400;-72
2022/02/02 06:07:37;;;;;;;4.47;1.00;;;0.80;96.30;;;;;;5014134;28;20954;-72
2022/02/02 06:10:09;;;;;;;2.87;1.00;;;0.80;96.30;;;;;;4988445;28;20463;-71
2022/02/02 06:12:34;;;;;;;5.20;1.20;;;0.80;96.30;;;;;;4993373;28;20411;-71
2022/02/02 06:15:08;;;;;;;6.77;1.37;;;0.80;96.30;;;;;;4993233;28;20414;-71
2022/02/02 06:17:39;;;;;;;7.50;1.53;;;0.80;96.30;;;;;;4994426;28;20161;-72
2022/02/02 06:20:06;;;;;;;10.93;2.33;;;0.80;96.30;;;;;;4992298;28;20409;-71
2022/02/02 06:22:32;;;;;;;6.83;1.73;;;0.90;96.30;;;;;;4995579;28;20437;-71
2022/02/02 06:25:35;;;;;;;13.87;1.90;;;0.90;96.30;;;;;;4992304;28;20432;-71
2022/02/02 06:28:06;;;;;;;13.93;2.57;;;1.00;96.30;;;;;;4984828;28;20508;-71
2022/02/02 06:30:33;;;;;;;5.23;1.30;;;1.10;96.30;;;;;;4989562;28;20417;-70
2022/02/02 06:33:13;;;;;;;9.90;1.80;;;1.10;96.30;;;;;;4988897;28;20409;-71
2022/02/02 06:35:39;;;;;;;12.03;1.80;;;1.10;96.30;;;;;;4994773;28;20963;-71
2022/02/02 06:38:05;;;;;;;7.17;1.23;;;1.20;96.30;;;;;;4992290;28;20567;-72
2022/02/02 06:40:33;;;;;;;7.10;1.27;;;1.20;96.30;;;;;;4982815;28;20248;-71
2022/02/02 06:42:59;;;;;;;1.70;0.90;;;1.30;96.30;;;;;;4978556;28;20459;-70
2022/02/02 06:45:25;;;;;;;7.47;1.13;;;1.30;96.30;;;;;;4992488;28;20475;-71
2022/02/02 06:47:51;;;;;;;3.97;1.10;;;1.20;96.30;;;;;;4980662;28;20469;-71
2022/02/02 06:50:26;;;;;;;3.60;1.27;;;1.10;96.30;;;;;;4993165;28;20830;-71
2022/02/02 06:53:25;;;;;;;8.43;1.37;;;1.10;96.30;;;;;;4993465;28;20203;-70
2022/02/02 06:56:08;;;;;;;13.60;1.80;;;1.10;96.30;;;;;;4993836;28;20429;-71
2022/02/02 07:01:54;;;;;;;3.37;1.57;;;1.10;96.30;;;;;;5002712;28;20441;-72
2022/02/02 07:04:34;;;;;;;3.87;0.80;;;1.20;96.30;;;;;;5018603;28;20513;-73
2022/02/02 07:07:16;;;;;;;4.73;1.30;;;1.20;96.30;;;;;;4994047;28;20466;-72
2022/02/02 07:12:48;;;;;;;10.23;2.30;;;1.00;96.30;;;;;;4993893;28;20782;-72
2022/02/02 07:15:34;;;;;;;2.90;1.23;;;1.00;96.30;;;;;;4993855;28;20524;-72
2022/02/02 07:18:23;;;;;;;3.03;1.03;;;1.00;96.30;;;;;;4993447;28;20808;-72
2022/02/02 07:21:06;;;;;;;9.63;1.90;;;0.90;96.30;;;;;;4978747;28;20409;-71
2022/02/02 07:28:39;;;;;;;4.83;1.00;;;1.10;96.30;;;;;;4973097;28;20530;-72
2022/02/02 07:31:30;;;;;;;8.73;1.27;;;1.10;96.30;;;;;;4991215;28;20935;-72
2022/02/02 07:34:31;;;;;;;9.80;1.80;;;1.10;96.30;;;;;;4992174;28;20421;-72
2022/02/02 07:37:02;;;;;;;7.07;1.53;;;1.10;96.30;;;;;;4985286;28;20440;-72
2022/02/02 07:39:28;;;;;;;3.50;1.10;;;1.10;96.30;;;;;;4992877;28;20444;-71
2022/02/02 07:42:02;;;;;;;14.73;2.00;;;1.20;96.30;;;;;;4992172;28;20460;-71
2022/02/02 07:44:30;;;;;;;11.40;1.50;;;1.20;96.30;;;;;;4992579;28;20778;-71
2022/02/02 07:46:59;;;;;;;7.03;1.93;;;1.10;96.30;;;;;;4992353;28;20468;-71
2022/02/02 07:49:32;;;;;;;9.27;2.07;;;1.20;96.30;;;;;;4992506;28;20429;-71
2022/02/02 07:51:58;;;;;;;11.80;1.87;;;1.20;96.30;;;;;;4998282;28;20419;-71
2022/02/02 07:54:29;;;;;;;13.53;1.70;;;1.30;96.30;;;;;;5009738;28;21054;-71
2022/02/02 07:56:57;;;;;;;9.10;1.10;;;1.30;96.30;;;;;;4992230;28;20452;-71
2022/02/02 08:01:50;;;;;;;9.53;1.73;;;1.20;96.30;;;;;;4991977;28;20429;-71
2022/02/02 08:04:18;;;;;;;7.27;1.70;;;1.20;96.30;;;;;;4988167;28;20173;-71
2022/02/02 08:06:50;;;;;;;6.23;1.50;;;1.20;96.30;;;;;;4992464;28;20463;-71
2022/02/02 08:09:25;;;;;;;14.17;1.87;;;1.20;96.30;;;;;;4976993;28;20518;-71
2022/02/02 08:11:52;;;;;;;9.07;1.73;;;1.20;96.30;;;;;;4984362;28;20428;-71
2022/02/02 08:14:19;;;;;;;7.10;1.33;;;1.20;96.30;;;;;;4992156;28;20435;-71
2022/02/02 08:16:44;;;;;;;10.70;1.67;;;1.20;96.30;;;;;;4999884;28;20795;-71
2022/02/02 08:19:10;;;;;;;7.73;1.63;;;1.20;96.30;;;;;;4992273;28;20428;-72
2022/02/02 08:21:35;;;;;;;5.80;1.83;;;1.20;96.30;;;;;;4991313;28;20184;-71
2022/02/02 08:24:00;;;;;;;3.73;1.47;;;1.30;96.30;;;;;;4974866;28;20197;-71
2022/02/02 08:26:26;;;;;;;7.90;1.63;;;1.20;96.30;;;;;;4979073;28;20210;-71
2022/02/02 08:28:56;;;;;;;6.00;1.17;;;1.30;96.30;;;;;;4985552;28;20225;-72
2022/02/02 08:31:24;;;;;;;9.83;2.00;;;1.30;96.30;;;;;;4990761;28;20170;-72
2022/02/02 08:33:50;;;;;;;7.43;1.93;;;1.30;96.30;;;;;;4977173;28;20421;-71
2022/02/02 08:36:18;;;;;;;7.30;1.40;;;1.30;96.30;;;;;;4996311;28;20416;-72
2022/02/02 08:38:54;;;;;;;4.93;1.40;;;1.30;96.30;;;;;;4989866;28;20453;-73
2022/02/02 08:41:28;;;;;;;8.60;1.40;;;1.40;96.30;;;;;;5011492;28;20416;-72
2022/02/02 08:44:12;;;;;;;11.77;1.83;;;1.40;96.30;;;;;;4996055;28;20413;-72
2022/02/02 08:46:42;;;;;;;8.83;1.43;;;1.40;96.30;;;;;;4995609;28;20886;-72
2022/02/02 08:49:11;;;;;;;7.10;1.57;;;1.50;96.30;;;;;;4995707;28;20441;-72
2022/02/02 08:51:41;;;;;;;10.53;1.50;;;1.40;96.30;;;;;;4996102;28;20498;-72
2022/02/02 08:54:26;;;;;;;5.00;1.17;;;1.50;96.30;;;;;;4995638;28;20455;-72
2022/02/02 08:57:16;;;;;;;7.30;1.30;;;1.50;96.30;;;;;;4980720;28;20438;-72
2022/02/02 08:59:52;;;;;;;9.47;1.27;;;1.50;96.30;;;;;;4991880;28;20464;-72
2022/02/02 09:02:22;;;;;;;8.47;1.63;;;1.50;96.30;;;;;;4995694;28;20424;-72
2022/02/02 09:07:32;;;;;;;9.90;1.47;;;1.40;96.30;;;;;;4994115;28;20483;-72
2022/02/02 09:10:04;;;;;;;9.20;1.90;;;1.40;96.30;;;;;;5001263;28;20899;-72
2022/02/02 09:33:54;;;;;;;7.70;2.43;;;1.70;96.30;;;;;;4995393;28;20189;-72
2022/02/02 09:36:23;;;;;;;10.30;2.10;;;1.80;96.30;;;;;;4982608;28;20417;-72
2022/02/02 09:38:53;;;;;;;8.27;1.20;;;1.70;96.30;;;;;;4975742;28;20429;-72
2022/02/02 09:43:58;;;;;;;11.77;2.10;;;1.70;96.30;;;;;;4975852;28;20939;-72
2022/02/02 09:46:29;;;;;;;4.30;1.47;;;1.80;96.30;;;;;;4975294;28;20464;-73
2022/02/02 09:48:59;;;;;;;12.10;2.30;;;1.70;96.30;;;;;;4993624;28;20922;-73
2022/02/02 09:51:42;;;;;;;8.57;1.93;;;1.80;96.30;;;;;;4994895;28;20520;-73
2022/02/02 09:54:14;;;;;;;7.07;1.50;;;1.90;96.30;;;;;;4994960;28;20517;-72
2022/02/02 09:59:30;;;;;;;15.30;2.70;;;1.90;96.30;;;;;;4994399;28;20479;-72
2022/02/02 10:02:35;;;;;;;9.87;1.87;;;1.90;96.30;;;;;;4987131;28;20424;-72
2022/02/02 10:15:45;;;;;;;10.33;1.90;;;2.00;96.30;;;;;;4995297;28;20181;-72
2022/02/02 10:18:22;;;;;;;15.43;2.67;;;2.00;96.30;;;;;;4995611;28;20444;-72
2022/02/02 10:20:53;;;;;;;7.90;1.97;;;2.00;96.30;;;;;;4994380;28;20412;-72
2022/02/02 10:23:23;;;;;;;8.63;1.70;;;2.00;96.30;;;;;;5001647;28;20407;-71
2022/02/02 10:25:57;;;;;;;12.70;2.17;;;2.00;96.30;;;;;;4993898;28;20420;-72
2022/02/02 10:28:24;;;;;;;6.87;1.43;;;2.10;96.30;;;;;;4999949;28;20436;-71
2022/02/02 10:30:53;;;;;;;12.43;1.70;;;2.10;96.30;;;;;;4966432;28;20412;-71
2022/02/02 10:33:25;;;;;;;8.73;2.07;;;2.10;96.30;;;;;;4984006;28;20539;-71
2022/02/02 10:36:00;;;;;;;12.00;2.70;;;2.10;96.30;;;;;;4985539;28;20425;-72
2022/02/02 10:38:35;;;;;;;7.70;2.50;;;2.10;96.30;;;;;;4974725;28;20459;-72
2022/02/02 10:41:18;;;;;;;9.17;2.23;;;2.10;96.30;;;;;;4968840;28;20483;-72
2022/02/02 10:44:03;;;;;;;4.50;1.80;;;2.10;96.30;;;;;;4987727;28;20425;-72
2022/02/02 10:46:40;;;;;;;11.23;2.37;;;2.00;96.30;;;;;;4976330;28;20839;-72
2022/02/02 10:49:18;;;;;;;13.20;3.30;;;2.00;96.30;;;;;;4993597;28;20440;-72
2022/02/02 10:51:53;;;;;;;8.57;2.17;;;2.00;96.30;;;;;;4993303;28;20413;-72
2022/02/02 10:54:29;;;;;;;11.97;1.80;;;2.10;96.30;;;;;;4991570;28;20436;-72
2022/02/02 11:00:09;;;;;;;3.57;1.33;;;2.30;96.30;;;;;;4985309;28;20482;-72
2022/02/02 11:08:04;;;;;;;14.00;2.00;;;1.90;96.30;;;;;;4976485;28;20496;-72
2022/02/02 11:10:30;;;;;;;10.93;2.00;;;1.70;96.30;;;;;;4982358;28;20420;-71
2022/02/02 11:12:57;;;;;;;9.97;1.40;;;1.80;96.30;;;;;;4993227;28;20401;-71
2022/02/02 11:15:27;;;;;;;8.10;1.53;;;1.90;96.30;;;;;;4992521;28;20922;-72
2022/02/02 11:18:09;;;;;;;6.97;2.27;;;2.10;96.30;;;;;;4992915;28;20433;-72
2022/02/02 11:20:37;;;;;;;14.80;3.87;;;2.30;96.30;;;;;;4992829;28;20429;-72
2022/02/02 11:23:05;;;;;;;8.13;1.60;;;2.30;96.30;;;;;;4992323;28;20413;-72
2022/02/02 11:25:33;;;;;;;5.60;1.27;;;2.20;96.30;;;;;;4989881;28;20412;-71
2022/02/02 11:28:02;;;;;;;8.70;1.70;;;2.20;96.30;;;;;;4992489;28;20468;-71
2022/02/02 11:30:27;;;;;;;7.53;1.57;;;2.10;96.30;;;;;;4992831;28;20463;-73
2022/02/02 11:33:11;;;;;;;8.37;2.20;;;2.00;96.30;;;;;;4992805;28;21067;-72
2022/02/02 11:38:23;;;;;;;16.60;1.80;;;1.80;96.30;;;;;;4992002;28;20919;-73
2022/02/02 11:43:50;;;;;;;8.13;1.60;;;1.80;96.30;;;;;;4969744;28;20494;-73
2022/02/02 11:46:38;;;;;;;5.00;1.20;;;2.00;96.30;;;;;;4976861;28;20491;-72
2022/02/02 11:49:12;;;;;;;12.23;1.70;;;2.10;96.30;;;;;;4971082;28;20480;-73
2022/02/02 11:51:42;;;;;;;9.00;2.57;;;2.30;96.30;;;;;;4991393;28;20936;-72
2022/02/02 11:54:15;;;;;;;3.90;0.80;;;2.20;96.30;;;;;;4992560;28;20424;-72
2022/02/02 11:57:04;;;;;;;4.67;1.43;;;2.20;96.30;;;;;;4984616;28;20484;-73
2022/02/02 11:59:57;;;;;;;6.23;1.60;;;2.20;96.30;;;;;;4992704;28;20872;-72
2022/02/02 12:11:06;;;;;;;4.40;1.27;;;2.00;96.30;;;;;;4970985;28;20550;-74
2022/02/02 12:57:38;;;;;;;4.17;1.17;;;2.50;96.30;;;;;;4991991;28;20494;-72
2022/02/02 13:00:10;;;;;;;4.33;1.20;;;2.60;96.30;;;;;;4991232;28;20420;-73
2022/02/02 13:02:41;;;;;;;7.70;2.73;;;2.60;96.30;;;;;;4991221;28;20463;-74
2022/02/02 13:05:08;;;;;;;4.90;1.10;;;2.60;96.30;;;;;;4991094;28;20480;-73
2022/02/02 13:07:35;;;;;;;6.00;1.60;;;2.50;96.30;;;;;;4972421;28;20473;-73
2022/02/02 13:10:06;;;;;;;6.63;1.60;;;2.40;96.30;;;;;;4991952;28;21055;-73
2022/02/02 13:20:35;;;;;;;3.17;1.00;;;2.60;96.30;;;;;;4981103;28;20499;-73
2022/02/02 13:23:08;;;;;;;10.17;1.40;;;2.50;96.30;;;;;;4996152;28;20423;-73
2022/02/02 13:25:34;;;;;;;11.10;1.50;;;2.50;96.30;;;;;;5014956;28;20392;-72
2022/02/02 13:28:02;;;;;;;10.67;1.87;;;2.40;96.30;;;;;;5014693;28;20471;-71
2022/02/02 13:30:52;;;;;;;7.23;1.53;;;2.20;96.30;;;;;;5004953;28;20438;-72
2022/02/02 13:33:33;;;;;;;8.07;1.67;;;2.20;96.30;;;;;;4995353;28;20931;-72
2022/02/02 13:36:32;;;;;;;5.47;1.43;;;2.20;96.30;;;;;;4994944;28;20479;-73
2022/02/02 13:39:06;;;;;;;8.57;1.67;;;2.40;96.30;;;;;;4994972;28;20452;-74
2022/02/02 13:45:09;;;;;;;6.87;1.23;;;2.30;96.30;;;;;;4994938;28;20440;-72
2022/02/02 13:52:47;;;;;;;6.93;1.50;;;2.10;96.30;;;;;;4994277;28;20186;-74
2022/02/02 13:55:35;;;;;;;8.27;1.87;;;2.00;96.30;;;;;;4994107;28;20173;-74
2022/02/02 13:58:27;;;;;;;5.03;1.43;;;2.10;96.30;;;;;;4987714;28;21117;-75
2022/02/02 14:01:02;;;;;;;6.90;1.23;;;2.00;96.30;;;;;;4992956;28;20429;-72
2022/02/02 14:33:26;;;;;;;5.37;1.20;;;1.30;96.30;;;;;;4993298;28;20435;-73
2022/02/02 14:35:59;;;;;;;8.23;1.43;;;1.40;96.30;;;;;;4992357;28;20776;-71
2022/02/02 14:38:25;;;;;;;5.00;1.53;;;1.40;96.30;;;;;;4992890;28;20201;-72
2022/02/02 14:43:26;;;;;;;7.93;2.43;;;1.50;96.30;;;;;;4975398;28;20461;-72
2022/02/02 14:45:56;;;;;;;5.63;1.43;;;1.50;96.30;;;;;;4980322;28;20424;-74
2022/02/02 14:48:31;;;;;;;13.30;2.17;;;1.50;96.30;;;;;;4987820;28;20465;-72
2022/02/02 14:51:06;;;;;;;3.20;1.30;;;1.50;96.30;;;;;;4995273;28;20938;-75
2022/02/02 14:53:45;;;;;;;4.30;0.90;;;1.50;96.30;;;;;;4992853;28;20896;-75
2022/02/02 14:56:50;;;;;;;5.47;1.50;;;1.50;96.30;;;;;;4994379;28;20389;-74
2022/02/02 15:58:54;;;;;;;4.97;1.13;;;1.80;96.30;;;;;;4953680;28;20485;-76
2022/02/02 16:25:13;;;;;;;5.47;1.63;;;1.40;96.30;;;;;;5012552;28;20415;-72
2022/02/02 16:35:51;;;;;;;9.33;1.63;;;1.20;96.30;;;;;;5015374;28;20511;-73
2022/02/02 16:38:19;;;;;;;9.70;1.80;;;1.00;96.30;;;;;;5017141;28;20923;-73
2022/02/02 16:40:49;;;;;;;4.60;1.50;;;0.90;96.30;;;;;;5011470;28;20422;-73
2022/02/02 16:43:15;;;;;;;3.03;1.13;;;0.80;96.30;;;;;;4990826;28;20467;-72
2022/02/02 16:45:50;;;;;;;4.43;1.17;;;0.80;96.30;;;;;;4975109;28;20420;-73
2022/02/02 16:48:17;;;;;;;5.70;1.47;;;0.80;96.30;;;;;;5003044;23;20229;-72
2022/02/02 16:50:46;;;;;;;7.50;1.27;;;0.80;96.30;;;;;;4992506;28;20814;-72
2022/02/02 16:53:39;;;;;;;2.70;0.80;;;0.90;96.30;;;;;;4992580;28;20909;-73
2022/02/02 16:56:11;;;;;;;5.90;1.20;;;0.90;96.30;;;;;;4992084;28;20417;-72
2022/02/02 17:31:19;;;;;;;5.43;1.70;;;0.90;96.30;;;;;;5186776;23;21167;-72
2022/02/02 17:33:41;;;;;;;7.37;1.00;;;0.90;96.30;;;;;;5030674;28;20508;-71
2022/02/02 17:41:27;;;;;;;13.67;1.80;;;0.80;96.30;;;;;;5034335;28;20423;-71
2022/02/02 17:44:11;;;;;;;5.17;1.60;;;0.80;96.30;;;;;;5035457;28;20160;-71
2022/02/02 18:03:15;;;;;;;15.90;1.40;;;0.80;96.30;;;;;;5000792;28;20475;-71
2022/02/02 18:14:36;;;;;;;11.30;1.93;;;0.90;96.30;;;;;;5016229;28;20486;-71
2022/02/02 18:19:08;;;;;;;6.80;1.20;;;0.90;96.30;;;;;;5003957;28;20888;-71
2022/02/02 18:21:34;;;;;;;6.07;1.80;;;0.80;96.30;;;;;;5013137;28;20412;-70
2022/02/02 18:26:43;;;;;;;7.17;1.20;;;0.90;96.30;;;;;;5007255;28;20452;-70
2022/02/02 18:32:05;;;;;;;5.07;1.00;;;0.90;96.30;;;;;;5014334;28;20407;-70
2022/02/02 18:34:46;;;;;;;2.80;1.33;;;1.00;96.30;;;;;;5005628;28;20743;-74
2022/02/02 18:48:10;;;;;;;3.90;1.20;;;0.80;96.30;;;;;;4993466;28;20518;-69
2022/02/02 18:51:05;;;;;;;9.90;2.00;;;0.80;96.30;;;;;;5000942;28;20440;-70
2022/02/02 18:53:46;;;;;;;5.73;1.20;;;0.80;96.30;;;;;;4993489;28;20932;-70
2022/02/02 18:56:39;;;;;;;6.50;1.37;;;0.80;96.30;;;;;;4992690;28;20390;-70
2022/02/02 18:59:24;;;;;;;4.50;1.57;;;0.90;96.30;;;;;;4993279;28;20494;-70
2022/02/02 19:02:01;;;;;;;3.87;1.23;;;0.90;96.30;;;;;;4993211;28;20428;-70
2022/02/02 19:04:54;;;;;;;5.17;1.10;;;0.90;96.30;;;;;;4992621;28;20918;-70
2022/02/02 19:07:45;;;;;;;2.93;1.03;;;0.90;96.30;;;;;;5004011;28;20455;-69
2022/02/02 19:31:10;;;;;;;3.83;1.20;;;0.90;96.30;;;;;;5015730;28;20187;-69
2022/02/02 19:40:04;;;;;;;9.40;1.87;;;0.70;96.30;;;;;;5012116;28;21025;-69
2022/02/02 19:55:10;;;;;;;14.93;2.00;;;0.80;96.30;;;;;;5011906;28;20511;-69
2022/02/02 20:02:06;;;;;;;16.30;2.13;;;0.80;96.30;;;;;;5011673;28;20434;-68
2022/02/02 20:04:43;;;;;;;5.90;1.63;;;0.80;96.30;;;;;;5011237;28;20465;-68
2022/02/02 20:10:04;;;;;;;4.57;1.17;;;0.80;96.30;;;;;;5031657;28;20819;-69
2022/02/02 20:12:37;;;;;;;13.30;2.60;;;0.80;96.30;;;;;;5031697;28;20390;-69
2022/02/02 20:15:04;;;;;;;5.90;1.40;;;0.80;96.30;;;;;;5016550;28;20475;-69
2022/02/02 20:17:32;;;;;;;7.27;0.87;;;0.70;96.30;;;;;;5011439;28;20465;-69
2022/02/02 20:20:01;;;;;;;5.30;1.20;;;0.80;96.30;;;;;;5011782;28;20466;-69
2022/02/02 20:22:30;;;;;;;14.50;1.53;;;0.90;96.30;;;;;;5011765;28;20507;-69
2022/02/02 20:25:01;;;;;;;6.60;1.20;;;0.80;96.30;;;;;;5010853;28;20420;-68
2022/02/02 20:27:30;;;;;;;6.90;1.70;;;0.80;96.30;;;;;;5011671;28;20459;-68
2022/02/02 20:29:55;;;;;;;8.03;1.23;;;0.90;96.30;;;;;;5011331;28;20431;-68
2022/02/02 20:32:21;;;;;;;6.47;1.43;;;1.00;96.30;;;;;;4994307;28;20419;-69
2022/02/02 20:34:47;;;;;;;4.80;1.40;;;0.90;96.30;;;;;;5014723;28;20169;-68
2022/02/02 20:37:15;;;;;;;18.10;2.37;;;0.90;96.30;;;;;;5015607;28;20184;-68
2022/02/02 20:39:52;;;;;;;12.77;1.60;;;0.90;96.30;;;;;;5015533;28;20730;-68
2022/02/02 20:42:26;;;;;;;5.07;1.57;;;0.90;96.30;;;;;;5015178;28;20900;-69
2022/02/02 20:45:13;;;;;;;14.47;2.20;;;0.90;96.30;;;;;;5013608;28;20848;-69
2022/02/02 21:04:18;;;;;;;5.43;1.10;;;0.90;96.30;;;;;;5015369;28;20424;-68
2022/02/02 21:09:31;;;;;;;7.07;1.90;;;0.90;96.30;;;;;;5015624;28;20494;-68
2022/02/02 21:13:41;;;;;;;14.33;2.13;;;0.80;96.30;;;;;;5014877;28;20416;-68
2022/02/02 21:14:49;;;;;;;11.87;1.90;;;0.90;96.30;;;;;;5014061;28;20416;-68
2022/02/02 21:17:21;;;;;;;4.87;1.60;;;0.90;96.30;;;;;;5014977;28;20418;-69
2022/02/02 21:19:54;;;;;;;13.03;1.87;;;0.80;96.30;;;;;;5015294;28;21098;-68
2022/02/02 21:22:21;;;;;;;4.87;1.47;;;0.80;96.30;;;;;;5015271;28;20535;-68
2022/02/02 21:27:24;;;;;;;6.10;1.63;;;0.80;96.30;;;;;;5014849;28;20450;-68
2022/02/02 21:29:49;;;;;;;9.70;1.83;;;0.80;96.30;;;;;;5014945;28;20795;-68
2022/02/02 21:32:17;;;;;;;12.50;2.50;;;0.80;96.30;;;;;;5014989;28;20434;-69
2022/02/02 21:34:42;;;;;;;8.27;2.03;;;0.80;96.30;;;;;;5014360;28;20256;-68
2022/02/02 21:37:09;;;;;;;13.60;1.83;;;0.80;96.30;;;;;;4997074;28;20511;-68
2022/02/02 21:39:38;;;;;;;8.20;1.23;;;0.80;96.30;;;;;;5014792;28;20189;-69
2022/02/02 21:42:03;;;;;;;11.87;2.07;;;0.80;96.30;;;;;;5014688;28;20420;-69
2022/02/02 21:44:29;;;;;;;18.13;2.20;;;0.80;96.30;;;;;;5013817;28;20412;-69
2022/02/02 21:46:55;;;;;;;5.87;1.53;;;0.80;96.30;;;;;;5017995;28;20272;-68
2022/02/02 21:49:23;;;;;;;11.80;1.70;;;0.80;96.30;;;;;;5014426;28;20276;-69
2022/02/02 21:54:18;;;;;;;9.83;1.90;;;0.80;96.30;;;;;;5015372;28;20501;-69
2022/02/02 21:56:44;;;;;;;11.33;1.63;;;0.70;96.30;;;;;;4996842;28;20451;-69
2022/02/02 21:59:09;;;;;;;10.67;2.07;;;0.70;96.30;;;;;;5014318;28;20443;-69
2022/02/02 22:01:35;;;;;;;2.90;0.90;;;0.70;96.30;;;;;;4996757;28;20199;-69
2022/02/02 22:04:00;;;;;;;19.13;2.53;;;0.80;96.30;;;;;;5014412;28;20181;-69
2022/02/02 22:06:26;;;;;;;8.00;1.47;;;0.80;96.30;;;;;;5014132;28;20205;-69
2022/02/02 22:08:53;;;;;;;12.03;2.27;;;0.80;96.30;;;;;;5014247;28;20199;-69
2022/02/02 22:11:18;;;;;;;12.20;1.67;;;0.80;96.30;;;;;;5014147;28;20570;-69
2022/02/02 22:13:49;;;;;;;18.00;2.17;;;0.80;96.30;;;;;;5014341;28;20412;-69
2022/02/02 22:16:16;;;;;;;10.57;2.20;;;0.70;96.30;;;;;;5013981;28;20169;-69
2022/02/02 22:18:42;;;;;;;4.53;1.20;;;0.80;96.30;;;;;;5014001;28;20428;-72
2022/02/02 22:21:08;;;;;;;18.60;2.20;;;0.80;96.30;;;;;;5014202;28;20416;-72
2022/02/02 22:23:35;;;;;;;9.03;2.20;;;0.70;96.30;;;;;;5013875;28;20772;-72
2022/02/02 22:26:01;;;;;;;16.90;1.87;;;0.70;96.30;;;;;;4996127;28;20169;-72
2022/02/02 22:28:27;;;;;;;8.23;3.33;;;0.70;96.30;;;;;;5013847;28;20468;-72
2022/02/02 22:30:52;;;;;;;11.27;1.40;;;0.70;96.30;;;;;;5013995;28;20900;-73
2022/02/02 22:33:18;;;;;;;17.47;2.30;;;0.70;96.30;;;;;;5013888;28;20173;-73
2022/02/02 22:35:43;;;;;;;7.83;1.60;;;0.70;96.30;;;;;;5019805;28;20263;-73
2022/02/02 22:38:10;;;;;;;12.03;1.90;;;0.70;96.30;;;;;;5031489;28;20204;-73
2022/02/02 22:40:36;;;;;;;13.80;1.70;;;0.70;96.30;;;;;;5012726;28;20172;-72
2022/02/02 22:43:02;;;;;;;7.30;1.70;;;0.80;96.30;;;;;;5013743;28;21177;-72
2022/02/02 22:45:28;;;;;;;18.67;2.07;;;0.70;96.30;;;;;;5031227;28;20451;-72
2022/02/02 22:47:54;;;;;;;17.67;1.80;;;0.70;96.30;;;;;;5013805;28;20295;-72
2022/02/02 22:50:21;;;;;;;5.50;1.50;;;0.70;96.30;;;;;;5013714;28;20914;-72
2022/02/02 22:52:51;;;;;;;12.63;3.60;;;0.70;96.30;;;;;;5013671;28;20172;-72
2022/02/02 22:55:18;;;;;;;10.20;1.77;;;0.70;96.30;;;;;;5031783;28;20400;-73
2022/02/02 22:57:44;;;;;;;14.30;2.17;;;0.70;96.30;;;;;;5015518;28;20961;-72
2022/02/02 23:00:15;;;;;;;11.60;2.50;;;0.70;96.30;;;;;;5033251;28;20436;-72
2022/02/02 23:02:51;;;;;;;11.73;1.53;;;0.80;96.30;;;;;;5015416;28;20431;-72
2022/02/02 23:05:19;;;;;;;5.77;1.20;;;0.80;96.30;;;;;;5032835;28;20417;-72
2022/02/02 23:07:45;;;;;;;12.93;2.23;;;0.70;96.30;;;;;;5018095;28;20483;-73
2022/02/02 23:10:10;;;;;;;9.90;2.30;;;0.80;96.30;;;;;;5013246;28;20446;-72
2022/02/02 23:12:36;;;;;;;8.10;1.53;;;0.70;96.30;;;;;;4995608;28;20168;-73
2022/02/02 23:15:07;;;;;;;13.10;2.10;;;0.70;96.30;;;;;;5012993;28;20702;-73
2022/02/02 23:17:33;;;;;;;10.33;1.43;;;0.70;96.30;;;;;;4995479;28;20604;-72
2022/02/02 23:19:59;;;;;;;5.87;1.50;;;0.60;96.30;;;;;;4995410;28;20963;-72
2022/02/02 23:22:29;;;;;;;22.70;2.70;;;0.70;96.30;;;;;;5013061;28;20404;-72
2022/02/02 23:24:58;;;;;;;15.50;2.03;;;0.70;96.30;;;;;;5012766;28;20200;-72
2022/02/02 23:27:24;;;;;;;11.07;1.60;;;0.70;96.30;;;;;;5012885;28;20455;-72
2022/02/02 23:29:55;;;;;;;13.57;1.57;;;0.60;96.30;;;;;;5012948;28;20420;-72
2022/02/02 23:32:24;;;;;;;12.83;1.63;;;0.70;96.30;;;;;;5012742;28;20518;-72
2022/02/02 23:34:49;;;;;;;6.43;1.20;;;0.70;96.30;;;;;;5012558;28;20973;-72
2022/02/02 23:37:15;;;;;;;9.30;2.07;;;0.60;96.30;;;;;;5012794;28;20591;-72
2022/02/02 23:39:41;;;;;;;10.20;2.03;;;0.60;96.30;;;;;;5012720;28;20575;-73
2022/02/02 23:44:35;;;;;;;14.10;2.13;;;0.50;96.30;;;;;;5012405;28;20427;-72
2022/02/02 23:47:02;;;;;;;12.60;1.87;;;0.50;96.30;;;;;;5012581;28;20812;-71
2022/02/02 23:49:43;;;;;;;7.63;1.97;;;0.50;96.30;;;;;;5012540;28;20431;-72
2022/02/02 23:52:11;;;;;;;11.13;1.43;;;0.50;96.30;;;;;;5012689;28;20483;-71
2022/02/02 23:54:39;;;;;;;9.40;2.80;;;0.40;96.30;;;;;;5012193;28;20445;-73
2022/02/02 23:57:11;;;;;;;12.60;3.37;;;0.40;96.30;;;;;;4994935;28;20557;-73
2022/02/02 23:59:57;;;;;;;15.00;2.07;;;0.40;96.30;;;;;;4994884;28;20439;-74
